Terminal Aerodrome Forecast
Issued by NWS

Home | Current Version | Previous Version | Text Only | Print | Product List | Glossary On
Versions: 1 2 3 4 5 6 7 8 9 10 11 12 13 14
000
FTAK31 PAJN 221700
TAFASI
TAF
PASI 221730Z 2218/2318 32008KT P6SM BKN012
     FM221900 32010KT P6SM SCT015 SCT120
     FM222100 29013KT P6SM SCT120
     FM230400 32011KT P6SM SCT015
     FM230800 32008KT P6SM OVC010
     FM231700 32010KT P6SM SCT015 BKN100=

USA.gov is the U.S. government's official web portal to all federal, state and local government web resources and services.